createdAt,value
2019-05-25T00:02:22.507Z,12.98
2019-05-25T00:07:27.775Z,12.67
2019-05-25T00:12:33.189Z,12.86
2019-05-25T00:17:38.540Z,12.90
2019-05-25T00:22:47.675Z,12.69
2019-05-25T00:27:53.319Z,12.86
2019-05-25T00:32:58.667Z,12.99
2019-05-25T00:38:04.205Z,12.88
2019-05-25T00:43:10.211Z,12.80
2019-05-25T00:48:15.412Z,12.60
2019-05-25T00:53:20.607Z,12.56
2019-05-25T00:58:25.912Z,12.63
2019-05-25T01:03:31.199Z,12.56
2019-05-25T01:08:36.406Z,12.34
2019-05-25T01:13:45.397Z,12.50
2019-05-25T01:18:50.348Z,12.56
2019-05-25T01:23:55.572Z,12.62
2019-05-25T01:29:02.279Z,12.66
2019-05-25T01:34:07.416Z,12.58
2019-05-25T01:39:12.616Z,12.54
2019-05-25T01:44:19.048Z,12.54
2019-05-25T01:49:25.914Z,12.47
2019-05-25T01:54:31.200Z,12.57
2019-05-25T01:59:36.406Z,12.41
2019-05-25T02:04:41.664Z,12.38
2019-05-25T02:09:46.849Z,12.21
2019-05-25T02:14:53.673Z,12.13
2019-05-25T02:19:58.878Z,12.17
2019-05-25T02:25:16.978Z,12.03
2019-05-25T02:30:12.356Z,11.96
2019-05-25T02:35:28.545Z,11.85
2019-05-25T02:40:33.836Z,11.74
2019-05-25T02:45:39.186Z,11.83
2019-05-25T02:50:44.685Z,11.83
2019-05-25T02:55:49.987Z,11.89
2019-05-25T03:00:56.284Z,11.86
2019-05-25T03:06:01.880Z,11.82
2019-05-25T03:11:07.243Z,11.79
2019-05-25T03:16:12.518Z,11.86
2019-05-25T03:21:17.732Z,11.84
2019-05-25T03:26:22.887Z,11.80
2019-05-25T03:31:30.396Z,11.71
2019-05-25T03:36:35.773Z,11.57
2019-05-25T03:41:41.023Z,11.66
2019-05-25T03:46:50.278Z,11.88
2019-05-25T03:51:55.980Z,11.82
2019-05-25T03:57:01.123Z,11.71
2019-05-25T04:02:06.486Z,11.88
2019-05-25T04:07:11.635Z,11.99
2019-05-25T04:12:16.867Z,11.89
2019-05-25T04:17:22.050Z,11.88
2019-05-25T04:22:27.316Z,11.86
2019-05-25T04:27:32.461Z,11.83
2019-05-25T04:32:38.108Z,12.12
2019-05-25T04:37:43.378Z,12.23
2019-05-25T04:42:48.549Z,12.47
2019-05-25T04:47:54.973Z,12.53
2019-05-25T04:53:00.811Z,12.72
2019-05-25T04:58:05.985Z,12.73
2019-05-25T05:03:11.332Z,12.92
2019-05-25T05:08:16.445Z,12.98
2019-05-25T05:13:21.794Z,13.19
2019-05-25T05:18:26.974Z,14.31
2019-05-25T05:23:32.395Z,15.90
2019-05-25T05:28:37.623Z,16.91
2019-05-25T05:33:43.091Z,17.60
2019-05-25T05:38:49.128Z,17.47
2019-05-25T05:43:57.165Z,17.73
2019-05-25T05:49:03.765Z,19.00
2019-05-25T05:54:09.009Z,19.87
2019-05-25T05:59:14.805Z,19.94
2019-05-25T06:04:20.253Z,19.97
2019-05-25T06:09:25.357Z,20.84
2019-05-25T06:14:30.671Z,20.05
2019-05-25T06:19:35.945Z,19.98
2019-05-25T06:24:41.168Z,21.64
2019-05-25T06:29:47.609Z,21.25
2019-05-25T06:34:52.947Z,22.10
2019-05-25T06:39:58.090Z,23.24
2019-05-25T06:45:03.690Z,22.50
2019-05-25T06:50:12.261Z,20.95
2019-05-25T06:55:17.545Z,21.54
2019-05-25T07:00:23.453Z,22.14
2019-05-25T07:05:28.735Z,21.63
2019-05-25T07:10:33.997Z,22.52
2019-05-25T07:15:39.224Z,22.76
2019-05-25T07:20:44.706Z,23.05
2019-05-25T07:25:50.135Z,21.51
2019-05-25T07:30:55.341Z,22.80
2019-05-25T07:36:00.652Z,22.87
2019-05-25T07:41:05.958Z,22.08
2019-05-25T07:46:18.315Z,21.12
2019-05-25T07:51:23.856Z,21.53
2019-05-25T07:56:29.096Z,20.94
2019-05-25T08:01:34.509Z,20.70
2019-05-25T08:06:40.056Z,21.64
2019-05-25T08:11:45.505Z,21.24
2019-05-25T08:16:50.727Z,21.40
2019-05-25T08:21:56.170Z,21.35
2019-05-25T08:27:01.428Z,21.12
2019-05-25T08:32:08.282Z,21.54
2019-05-25T08:37:13.580Z,20.34
2019-05-25T08:42:18.703Z,20.66
2019-05-25T08:47:23.922Z,21.41
2019-05-25T08:52:29.410Z,21.89
2019-05-25T08:57:34.650Z,21.51
2019-05-25T09:02:40.746Z,21.86
2019-05-25T09:07:45.977Z,22.20
2019-05-25T09:12:51.193Z,19.94
2019-05-25T09:17:57.330Z,21.55
2019-05-25T09:23:02.497Z,20.95
2019-05-25T09:28:07.693Z,19.62
2019-05-25T09:33:12.968Z,19.34
2019-05-25T09:38:19.658Z,19.47
2019-05-25T09:43:24.901Z,19.77
2019-05-25T09:48:30.320Z,19.73
2019-05-25T09:53:35.571Z,20.48
2019-05-25T09:58:40.966Z,20.98
2019-05-25T10:03:46.310Z,20.97
2019-05-25T10:08:51.581Z,20.50
2019-05-25T10:13:57.187Z,21.38
2019-05-25T10:19:03.237Z,21.56
2019-05-25T10:24:08.506Z,21.24
2019-05-25T10:29:15.334Z,21.22
2019-05-25T10:34:20.428Z,20.83
2019-05-25T10:39:26.033Z,20.99
2019-05-25T10:44:33.048Z,21.02
2019-05-25T10:49:38.272Z,20.98
2019-05-25T10:54:44.372Z,21.34
2019-05-25T10:59:53.011Z,21.56
2019-05-25T11:04:56.426Z,21.09
2019-05-25T11:10:01.908Z,21.88
2019-05-25T11:15:10.088Z,21.71
2019-05-25T11:20:15.504Z,21.38
2019-05-25T11:25:23.183Z,21.53
2019-05-25T11:30:28.422Z,21.20
2019-05-25T11:35:33.601Z,21.35
2019-05-25T11:40:39.054Z,21.54
2019-05-25T11:45:46.252Z,21.61
2019-05-25T11:50:51.431Z,21.54
2019-05-25T11:55:57.243Z,21.76
2019-05-25T12:01:04.221Z,21.31
2019-05-25T12:06:09.552Z,21.55
2019-05-25T12:11:14.952Z,22.14
2019-05-25T12:16:20.103Z,21.39
2019-05-25T12:21:25.309Z,21.77
2019-05-25T12:26:30.638Z,21.85
2019-05-25T12:31:35.974Z,22.47
2019-05-25T12:36:41.901Z,21.61
2019-05-25T12:41:47.236Z,21.40
2019-05-25T12:46:54.186Z,21.16
2019-05-25T12:51:59.400Z,21.30
2019-05-25T12:57:05.156Z,21.72
2019-05-25T13:02:10.887Z,22.47
2019-05-25T13:07:16.059Z,22.22
2019-05-25T13:12:21.345Z,21.17
2019-05-25T13:17:26.844Z,22.13
2019-05-25T13:22:32.030Z,21.70
2019-05-25T13:27:37.451Z,22.01
2019-05-25T13:32:42.789Z,22.10
2019-05-25T13:37:48.124Z,22.27
2019-05-25T13:42:53.803Z,22.28
2019-05-25T13:47:59.067Z,21.96
2019-05-25T13:53:04.528Z,20.79
2019-05-25T13:58:13.821Z,21.42
2019-05-25T14:03:19.722Z,21.80
2019-05-25T14:08:25.007Z,21.50
2019-05-25T14:13:30.214Z,22.27
2019-05-25T14:18:35.458Z,21.97
2019-05-25T14:23:40.758Z,21.66
2019-05-25T14:28:46.067Z,21.98
2019-05-25T14:33:51.422Z,21.85
2019-05-25T14:38:58.195Z,21.43
2019-05-25T14:44:04.594Z,21.97
2019-05-25T14:49:09.763Z,20.95
2019-05-25T14:54:17.064Z,21.10
2019-05-25T14:59:23.011Z,21.00
2019-05-25T15:04:28.342Z,20.92
2019-05-25T15:09:33.545Z,21.35
2019-05-25T15:14:38.800Z,21.68
2019-05-25T15:19:44.006Z,21.79
2019-05-25T15:24:49.158Z,22.00
2019-05-25T15:29:54.440Z,22.14
2019-05-25T15:35:00.263Z,21.62
2019-05-25T15:40:06.390Z,21.80
2019-05-25T15:45:11.838Z,22.01
2019-05-25T15:50:18.737Z,21.53
2019-05-25T15:55:24.495Z,21.32
2019-05-25T16:00:55.117Z,21.46
2019-05-25T16:06:00.394Z,21.30
2019-05-25T16:11:05.766Z,21.27
2019-05-25T16:16:11.346Z,21.12
2019-05-25T16:21:16.591Z,20.83
2019-05-25T16:26:21.841Z,20.55
2019-05-25T16:31:27.070Z,20.90
2019-05-25T16:36:32.312Z,20.28
2019-05-25T16:41:37.479Z,19.66
2019-05-25T16:46:46.096Z,20.24
2019-05-25T16:51:51.616Z,20.47
2019-05-25T16:56:56.872Z,20.88
2019-05-25T17:02:03.865Z,20.64
2019-05-25T17:07:09.100Z,20.31
2019-05-25T17:12:14.349Z,20.62
2019-05-25T17:17:19.786Z,20.36
2019-05-25T17:22:24.968Z,20.76
2019-05-25T17:27:30.238Z,19.93
2019-05-25T17:32:35.739Z,19.86
2019-05-25T17:37:40.958Z,19.82
2019-05-25T17:42:46.193Z,20.51
2019-05-25T17:47:51.769Z,19.69
2019-05-25T17:52:57.067Z,19.75
2019-05-25T17:58:02.330Z,19.93
2019-05-25T18:03:07.872Z,19.57
2019-05-25T18:08:13.144Z,19.27
2019-05-25T18:13:18.370Z,19.60
2019-05-25T18:18:23.584Z,19.45
2019-05-25T18:23:30.454Z,18.92
2019-05-25T18:28:35.699Z,18.65
2019-05-25T18:33:41.105Z,18.82
2019-05-25T18:38:46.336Z,18.92
2019-05-25T18:43:57.064Z,19.01
2019-05-25T18:49:04.396Z,18.51
2019-05-25T18:54:12.880Z,18.27
2019-05-25T18:59:18.120Z,18.28
2019-05-25T19:04:41.944Z,18.33
2019-05-25T19:09:30.393Z,18.09
2019-05-25T19:14:37.563Z,18.06
2019-05-25T19:19:43.050Z,17.68
2019-05-25T19:24:48.596Z,17.62
2019-05-25T19:29:54.858Z,17.46
2019-05-25T19:35:00.478Z,17.39
2019-05-25T19:40:09.142Z,17.33
2019-05-25T19:45:15.997Z,17.09
2019-05-25T19:50:22.119Z,16.51
2019-05-25T19:55:27.349Z,16.27
2019-05-25T20:00:32.563Z,16.56
2019-05-25T20:05:38.127Z,16.41
2019-05-25T20:10:43.457Z,16.38
2019-05-25T20:15:48.739Z,16.35
2019-05-25T20:20:54.108Z,16.31
2019-05-25T20:26:00.875Z,16.40
2019-05-25T20:31:06.250Z,16.06
2019-05-25T20:36:12.108Z,16.21
2019-05-25T20:41:17.515Z,15.64
2019-05-25T20:46:22.947Z,15.99
2019-05-25T20:51:28.511Z,15.96
2019-05-25T20:56:37.805Z,15.87
2019-05-25T21:01:43.013Z,15.82
2019-05-25T21:06:48.612Z,15.72
2019-05-25T21:11:56.469Z,15.28
2019-05-25T21:17:01.888Z,14.64
2019-05-25T21:22:07.561Z,14.73
2019-05-25T21:27:12.736Z,14.71
2019-05-25T21:32:18.741Z,14.64
2019-05-25T21:37:25.770Z,14.88
2019-05-25T21:42:33.617Z,15.13
2019-05-25T21:47:38.944Z,14.87
2019-05-25T21:52:44.697Z,14.89
2019-05-25T21:57:50.002Z,14.64
2019-05-25T22:02:55.867Z,14.77
2019-05-25T22:08:02.522Z,14.85
2019-05-25T22:13:23.801Z,14.73
2019-05-25T22:18:14.783Z,14.46
2019-05-25T22:23:20.229Z,14.16
2019-05-25T22:28:26.425Z,14.06
2019-05-25T22:33:33.079Z,14.01
2019-05-25T22:38:38.410Z,14.20
2019-05-25T22:43:43.718Z,14.00
2019-05-25T22:48:48.906Z,13.48
2019-05-25T22:53:54.677Z,13.63
2019-05-25T22:58:59.880Z,13.76
2019-05-25T23:04:07.438Z,13.77
2019-05-25T23:09:13.562Z,13.76
2019-05-25T23:14:18.847Z,13.94
2019-05-25T23:19:24.524Z,13.53
2019-05-25T23:24:30.068Z,13.80
2019-05-25T23:29:36.304Z,13.26
2019-05-25T23:34:41.660Z,13.60
2019-05-25T23:39:50.253Z,13.61
2019-05-25T23:44:55.521Z,13.36
2019-05-25T23:50:00.785Z,13.34
2019-05-25T23:55:06.878Z,13.09
